172-й км МНП

Карта отелей и гостиниц, располагающихся рядом с аэропортом 172-й км МНП :

172-й км МНП Республика Коми 65° 4' 5.88" N, 57° 2' 50.9388" E
172-й км МНП Республика Коми 65° 4' 5.88" N, 57° 2' 50.9388" E
Код аэродрома ИКАО: 
HEC4
Код аэродрома RU: 
ХЕЦ4
Координаты: 
N65.06830° E057.04748°
Превышение над уровнем моря : 
83
Основная полоса: 
05/23
Курс магнитный: 
048,8/228,8
Длина основной ВПП: 
11
Ширина основной ВПП: 
11
Покрытие основной ВПП: 
Твёрдое
Освещение ВПП: 
Нет
Тип: 
Вертодром
Класс аэродрома: 
Принадлежность: 
ГА
Статус: 
Действующий
Сайт: 
E-mail аэродрома: 
Страна: 
Россия
Регион: 
Республика Коми
Город: 
Дополнительная информация: 
Оператор: нет данных.

Найти трансфер

С помощью этой формы Вы можете найти трансфер из аэропорта 172-й км МНП в город, аэропорт или вокзал:

Карта места

Javascript is required to view this map.

Погода в аэропортах:

Авиационная погода в Элисте

Регион: 
Погода METAR: 
URWI 270730Z 12010MPS 9000 -DS NSC 19/06 Q1022 R09/010065 TEMPO 12013G20MPS 3000 -DS
Время наблюдения: 
2020-09-27T07:30:00Z
Температура C: 
19.0
Точка росы: 
6.0
Направление ветра: 
120
Скорость ветра (узлы): 
19
Метеорологическая видимость: 
5.59
Явления погоды: 
-DS
Условия полета: 
VFR
Аэропорт подробнее: 

Авиационная погода в Хомутово

Регион: 
Погода METAR: 
UHSS 270730Z 35006MPS 9999 -SHRA BKN032CB 08/06 Q1016 R01/250255 NOSIG RMK MT OBSC QFE761/1014
Время наблюдения: 
2020-09-27T07:30:00Z
Температура C: 
8.0
Точка росы: 
6.0
Направление ветра: 
350
Скорость ветра (узлы): 
12
Метеорологическая видимость: 
6.21
Явления погоды: 
-SHRA
Условия полета: 
VFR
Аэропорт подробнее: 

Авиационная погода в Виннице

Регион: 
Погода METAR: 
UKWW 270730Z 15004MPS 9999 -SHRA BKN018CB 17/16 Q1002 NOSIG
Время наблюдения: 
2020-09-27T07:30:00Z
Температура C: 
17.0
Точка росы: 
16.0
Направление ветра: 
150
Скорость ветра (узлы): 
8
Метеорологическая видимость: 
6.21
Явления погоды: 
-SHRA
Условия полета: 
MVFR
Аэропорт подробнее: 

Авиационная погода в Гостомеле

Регион: 
Погода METAR: 
UKKM 270730Z AUTO 10004MPS 070V130 9999 -SHUP BKN070CB 16/11 Q1006
Время наблюдения: 
2020-09-27T07:30:00Z
Температура C: 
16.0
Точка росы: 
11.0
Направление ветра: 
100
Скорость ветра (узлы): 
8
Метеорологическая видимость: 
6.21
Явления погоды: 
SH UP
Условия полета: 
VFR
Аэропорт подробнее: